sensor_id;sensor_type;location;lat;lon;timestamp;P1;durP1;ratioP1;P2;durP2;ratioP2
63114;SDS011;49208;50.874;6.466;2022-09-17T05:00:36;8.30;;;1.10;;
63114;SDS011;49208;50.874;6.466;2022-09-17T05:03:02;9.43;;;1.52;;
63114;SDS011;49208;50.874;6.466;2022-09-17T05:05:28;6.25;;;1.30;;
63114;SDS011;49208;50.874;6.466;2022-09-17T05:07:53;5.25;;;1.48;;
63114;SDS011;49208;50.874;6.466;2022-09-17T05:10:20;7.53;;;1.65;;
63114;SDS011;49208;50.874;6.466;2022-09-17T05:15:13;7.85;;;1.70;;
63114;SDS011;49208;50.874;6.466;2022-09-17T05:17:38;4.50;;;1.52;;
63114;SDS011;49208;50.874;6.466;2022-09-17T05:20:04;6.47;;;2.05;;
63114;SDS011;49208;50.874;6.466;2022-09-17T05:22:29;8.02;;;1.48;;
63114;SDS011;49208;50.874;6.466;2022-09-17T05:24:55;4.72;;;1.25;;
63114;SDS011;49208;50.874;6.466;2022-09-17T05:27:20;8.38;;;2.47;;
63114;SDS011;49208;50.874;6.466;2022-09-17T05:29:45;7.43;;;1.80;;
63114;SDS011;49208;50.874;6.466;2022-09-17T05:32:11;6.93;;;1.52;;
63114;SDS011;49208;50.874;6.466;2022-09-17T05:34:36;5.78;;;1.85;;
63114;SDS011;49208;50.874;6.466;2022-09-17T05:37:02;4.45;;;1.30;;
63114;SDS011;49208;50.874;6.466;2022-09-17T05:39:27;6.97;;;1.55;;
63114;SDS011;49208;50.874;6.466;2022-09-17T05:41:53;6.32;;;1.50;;
63114;SDS011;49208;50.874;6.466;2022-09-17T05:44:19;7.75;;;1.55;;
63114;SDS011;49208;50.874;6.466;2022-09-17T05:46:45;7.53;;;1.63;;
63114;SDS011;49208;50.874;6.466;2022-09-17T05:49:12;6.28;;;1.60;;
63114;SDS011;49208;50.874;6.466;2022-09-17T05:51:39;4.60;;;1.52;;
63114;SDS011;49208;50.874;6.466;2022-09-17T05:54:07;4.90;;;1.50;;
63114;SDS011;49208;50.874;6.466;2022-09-17T05:56:33;8.43;;;1.58;;
63114;SDS011;49208;50.874;6.466;2022-09-17T05:58:59;5.88;;;1.52;;
63114;SDS011;49208;50.874;6.466;2022-09-17T06:01:24;8.55;;;1.55;;
63114;SDS011;49208;50.874;6.466;2022-09-17T06:03:50;5.80;;;1.42;;
63114;SDS011;49208;50.874;6.466;2022-09-17T06:06:16;8.57;;;1.60;;
63114;SDS011;49208;50.874;6.466;2022-09-17T06:08:41;6.35;;;1.80;;
63114;SDS011;49208;50.874;6.466;2022-09-17T06:11:07;4.63;;;1.35;;
63114;SDS011;49208;50.874;6.466;2022-09-17T06:13:33;7.15;;;1.70;;
63114;SDS011;49208;50.874;6.466;2022-09-17T06:15:59;6.75;;;1.40;;
63114;SDS011;49208;50.874;6.466;2022-09-17T06:18:26;5.00;;;1.73;;
63114;SDS011;49208;50.874;6.466;2022-09-17T06:20:56;8.43;;;1.38;;
63114;SDS011;49208;50.874;6.466;2022-09-17T06:23:25;6.93;;;1.20;;
63114;SDS011;49208;50.874;6.466;2022-09-17T06:25:52;6.45;;;1.23;;
63114;SDS011;49208;50.874;6.466;2022-09-17T06:28:20;4.32;;;1.00;;
63114;SDS011;49208;50.874;6.466;2022-09-17T06:30:45;5.15;;;1.50;;
63114;SDS011;49208;50.874;6.466;2022-09-17T06:33:12;5.80;;;1.38;;
63114;SDS011;49208;50.874;6.466;2022-09-17T06:35:37;7.15;;;1.27;;
63114;SDS011;49208;50.874;6.466;2022-09-17T06:38:03;6.50;;;1.63;;
63114;SDS011;49208;50.874;6.466;2022-09-17T06:40:29;8.00;;;2.85;;
63114;SDS011;49208;50.874;6.466;2022-09-17T06:42:58;6.10;;;1.60;;
63114;SDS011;49208;50.874;6.466;2022-09-17T06:45:24;5.72;;;1.70;;
63114;SDS011;49208;50.874;6.466;2022-09-17T06:47:50;6.60;;;1.63;;
63114;SDS011;49208;50.874;6.466;2022-09-17T06:50:16;6.63;;;1.80;;
63114;SDS011;49208;50.874;6.466;2022-09-17T06:52:48;9.60;;;2.22;;
63114;SDS011;49208;50.874;6.466;2022-09-17T06:55:15;15.60;;;1.80;;
63114;SDS011;49208;50.874;6.466;2022-09-17T06:57:41;7.05;;;1.38;;
63114;SDS011;49208;50.874;6.466;2022-09-17T07:00:06;6.10;;;1.45;;
63114;SDS011;49208;50.874;6.466;2022-09-17T07:02:33;6.50;;;1.47;;
63114;SDS011;49208;50.874;6.466;2022-09-17T07:04:58;6.47;;;1.05;;
63114;SDS011;49208;50.874;6.466;2022-09-17T07:07:24;5.88;;;1.52;;
63114;SDS011;49208;50.874;6.466;2022-09-17T07:09:49;7.10;;;1.08;;
63114;SDS011;49208;50.874;6.466;2022-09-17T07:12:14;5.18;;;1.27;;
63114;SDS011;49208;50.874;6.466;2022-09-17T07:14:40;3.88;;;1.02;;
63114;SDS011;49208;50.874;6.466;2022-09-17T07:17:05;6.72;;;1.52;;
63114;SDS011;49208;50.874;6.466;2022-09-17T07:19:31;5.32;;;1.67;;
63114;SDS011;49208;50.874;6.466;2022-09-17T07:21:56;4.47;;;1.58;;
63114;SDS011;49208;50.874;6.466;2022-09-17T07:24:22;4.13;;;1.05;;
63114;SDS011;49208;50.874;6.466;2022-09-17T07:26:48;5.78;;;1.20;;
63114;SDS011;49208;50.874;6.466;2022-09-17T07:29:14;4.38;;;1.42;;
63114;SDS011;49208;50.874;6.466;2022-09-17T07:31:40;3.75;;;1.00;;
63114;SDS011;49208;50.874;6.466;2022-09-17T07:34:05;8.23;;;1.20;;
63114;SDS011;49208;50.874;6.466;2022-09-17T07:36:30;5.00;;;1.30;;
63114;SDS011;49208;50.874;6.466;2022-09-17T07:38:56;3.55;;;1.00;;
63114;SDS011;49208;50.874;6.466;2022-09-17T07:41:22;5.70;;;1.13;;
63114;SDS011;49208;50.874;6.466;2022-09-17T07:43:47;4.32;;;0.90;;
63114;SDS011;49208;50.874;6.466;2022-09-17T07:46:18;6.15;;;1.38;;
63114;SDS011;49208;50.874;6.466;2022-09-17T07:48:44;5.10;;;1.60;;
63114;SDS011;49208;50.874;6.466;2022-09-17T07:51:16;5.68;;;1.23;;
63114;SDS011;49208;50.874;6.466;2022-09-17T07:53:42;7.55;;;1.35;;
63114;SDS011;49208;50.874;6.466;2022-09-17T07:56:08;8.80;;;1.58;;
63114;SDS011;49208;50.874;6.466;2022-09-17T07:58:33;7.63;;;1.60;;
63114;SDS011;49208;50.874;6.466;2022-09-17T08:01:04;7.72;;;1.45;;
63114;SDS011;49208;50.874;6.466;2022-09-17T08:03:32;5.32;;;1.10;;
63114;SDS011;49208;50.874;6.466;2022-09-17T08:06:05;5.30;;;1.23;;
63114;SDS011;49208;50.874;6.466;2022-09-17T08:08:35;8.02;;;1.23;;
63114;SDS011;49208;50.874;6.466;2022-09-17T08:11:09;9.10;;;1.52;;
63114;SDS011;49208;50.874;6.466;2022-09-17T08:13:37;8.07;;;1.45;;
63114;SDS011;49208;50.874;6.466;2022-09-17T08:16:04;5.68;;;1.42;;
63114;SDS011;49208;50.874;6.466;2022-09-17T08:18:31;6.60;;;1.75;;
63114;SDS011;49208;50.874;6.466;2022-09-17T08:20:59;5.72;;;1.45;;
63114;SDS011;49208;50.874;6.466;2022-09-17T08:23:25;4.20;;;0.95;;
63114;SDS011;49208;50.874;6.466;2022-09-17T08:25:52;6.07;;;1.00;;
63114;SDS011;49208;50.874;6.466;2022-09-17T08:28:19;10.13;;;1.30;;
63114;SDS011;49208;50.874;6.466;2022-09-17T08:30:45;4.90;;;1.25;;
63114;SDS011;49208;50.874;6.466;2022-09-17T08:33:12;5.90;;;1.20;;
63114;SDS011;49208;50.874;6.466;2022-09-17T08:35:37;9.32;;;1.65;;
63114;SDS011;49208;50.874;6.466;2022-09-17T08:38:03;6.25;;;1.45;;
63114;SDS011;49208;50.874;6.466;2022-09-17T08:40:28;4.60;;;1.25;;
63114;SDS011;49208;50.874;6.466;2022-09-17T08:42:54;11.30;;;1.80;;
63114;SDS011;49208;50.874;6.466;2022-09-17T08:45:24;4.32;;;1.30;;
63114;SDS011;49208;50.874;6.466;2022-09-17T08:47:50;7.57;;;1.73;;
63114;SDS011;49208;50.874;6.466;2022-09-17T08:50:26;7.40;;;1.90;;
63114;SDS011;49208;50.874;6.466;2022-09-17T08:55:46;6.13;;;1.77;;
63114;SDS011;49208;50.874;6.466;2022-09-17T09:06:10;7.28;;;1.17;;
63114;SDS011;49208;50.874;6.466;2022-09-17T09:08:44;5.85;;;1.60;;
63114;SDS011;49208;50.874;6.466;2022-09-17T09:11:25;6.13;;;1.35;;
63114;SDS011;49208;50.874;6.466;2022-09-17T09:13:54;8.00;;;1.60;;
63114;SDS011;49208;50.874;6.466;2022-09-17T09:16:28;4.97;;;1.17;;
63114;SDS011;49208;50.874;6.466;2022-09-17T09:19:10;2.85;;;0.70;;
63114;SDS011;49208;50.874;6.466;2022-09-17T09:21:55;5.50;;;1.02;;
63114;SDS011;49208;50.874;6.466;2022-09-17T09:24:39;6.95;;;0.82;;
63114;SDS011;49208;50.874;6.466;2022-09-17T09:27:26;2.30;;;0.75;;
63114;SDS011;49208;50.874;6.466;2022-09-17T09:30:04;3.17;;;0.80;;
63114;SDS011;49208;50.874;6.466;2022-09-17T09:32:40;3.45;;;1.05;;
63114;SDS011;49208;50.874;6.466;2022-09-17T09:35:15;3.97;;;1.10;;
63114;SDS011;49208;50.874;6.466;2022-09-17T09:37:51;5.00;;;1.17;;
63114;SDS011;49208;50.874;6.466;2022-09-17T09:42:56;3.20;;;0.88;;
63114;SDS011;49208;50.874;6.466;2022-09-17T09:45:43;5.55;;;1.02;;
63114;SDS011;49208;50.874;6.466;2022-09-17T09:51:33;4.13;;;0.98;;
63114;SDS011;49208;50.874;6.466;2022-09-17T09:54:58;2.08;;;0.70;;
63114;SDS011;49208;50.874;6.466;2022-09-17T09:57:33;3.67;;;1.40;;
63114;SDS011;49208;50.874;6.466;2022-09-17T10:03:05;3.95;;;1.27;;
63114;SDS011;49208;50.874;6.466;2022-09-17T10:05:34;3.90;;;1.08;;
63114;SDS011;49208;50.874;6.466;2022-09-17T10:08:09;5.10;;;1.13;;
63114;SDS011;49208;50.874;6.466;2022-09-17T10:10:37;5.97;;;1.30;;
63114;SDS011;49208;50.874;6.466;2022-09-17T10:13:18;4.60;;;1.17;;
63114;SDS011;49208;50.874;6.466;2022-09-17T10:15:44;3.80;;;1.08;;
63114;SDS011;49208;50.874;6.466;2022-09-17T10:18:20;3.42;;;0.90;;
63114;SDS011;49208;50.874;6.466;2022-09-17T10:20:57;3.97;;;1.00;;
63114;SDS011;49208;50.874;6.466;2022-09-17T10:23:25;7.07;;;1.00;;
63114;SDS011;49208;50.874;6.466;2022-09-17T10:25:54;3.88;;;0.70;;
63114;SDS011;49208;50.874;6.466;2022-09-17T10:28:23;6.55;;;1.13;;
63114;SDS011;49208;50.874;6.466;2022-09-17T10:31:18;4.57;;;1.40;;
63114;SDS011;49208;50.874;6.466;2022-09-17T10:33:57;3.60;;;0.93;;
63114;SDS011;49208;50.874;6.466;2022-09-17T10:36:38;4.90;;;1.90;;
63114;SDS011;49208;50.874;6.466;2022-09-17T10:44:54;4.68;;;0.93;;
63114;SDS011;49208;50.874;6.466;2022-09-17T10:47:21;3.55;;;0.70;;
63114;SDS011;49208;50.874;6.466;2022-09-17T10:49:59;3.03;;;0.60;;
63114;SDS011;49208;50.874;6.466;2022-09-17T10:52:45;3.35;;;0.85;;
63114;SDS011;49208;50.874;6.466;2022-09-17T10:55:27;4.93;;;0.70;;
63114;SDS011;49208;50.874;6.466;2022-09-17T11:00:37;3.47;;;0.70;;
63114;SDS011;49208;50.874;6.466;2022-09-17T11:19:41;4.75;;;0.98;;
63114;SDS011;49208;50.874;6.466;2022-09-17T11:37:50;2.38;;;0.82;;
63114;SDS011;49208;50.874;6.466;2022-09-17T11:40:21;2.17;;;0.63;;
63114;SDS011;49208;50.874;6.466;2022-09-17T11:42:56;3.03;;;0.70;;
63114;SDS011;49208;50.874;6.466;2022-09-17T11:45:32;5.50;;;1.42;;
63114;SDS011;49208;50.874;6.466;2022-09-17T11:48:16;3.05;;;1.17;;
63114;SDS011;49208;50.874;6.466;2022-09-17T11:50:45;3.67;;;0.93;;
63114;SDS011;49208;50.874;6.466;2022-09-17T12:01:12;6.10;;;1.42;;
63114;SDS011;49208;50.874;6.466;2022-09-17T12:03:49;2.73;;;0.70;;
63114;SDS011;49208;50.874;6.466;2022-09-17T12:06:35;4.13;;;0.57;;
63114;SDS011;49208;50.874;6.466;2022-09-17T12:09:20;1.17;;;0.40;;
63114;SDS011;49208;50.874;6.466;2022-09-17T12:11:52;2.42;;;0.30;;
63114;SDS011;49208;50.874;6.466;2022-09-17T12:16:58;2.20;;;0.40;;
63114;SDS011;49208;50.874;6.466;2022-09-17T12:19:30;2.15;;;0.73;;
63114;SDS011;49208;50.874;6.466;2022-09-17T12:22:00;2.08;;;0.40;;
63114;SDS011;49208;50.874;6.466;2022-09-17T12:24:32;2.95;;;0.60;;
63114;SDS011;49208;50.874;6.466;2022-09-17T12:29:35;0.65;;;0.40;;
63114;SDS011;49208;50.874;6.466;2022-09-17T12:51:54;1.92;;;0.60;;
63114;SDS011;49208;50.874;6.466;2022-09-17T12:54:29;1.08;;;0.50;;
63114;SDS011;49208;50.874;6.466;2022-09-17T12:57:22;3.65;;;0.75;;
63114;SDS011;49208;50.874;6.466;2022-09-17T13:10:39;4.78;;;1.00;;
63114;SDS011;49208;50.874;6.466;2022-09-17T13:13:32;1.88;;;0.82;;
63114;SDS011;49208;50.874;6.466;2022-09-17T13:16:22;3.47;;;0.77;;
63114;SDS011;49208;50.874;6.466;2022-09-17T13:24:19;4.13;;;0.57;;
63114;SDS011;49208;50.874;6.466;2022-09-17T13:26:49;2.35;;;0.60;;
63114;SDS011;49208;50.874;6.466;2022-09-17T13:40:23;2.65;;;0.80;;
63114;SDS011;49208;50.874;6.466;2022-09-17T13:42:52;4.70;;;1.08;;
63114;SDS011;49208;50.874;6.466;2022-09-17T13:45:27;4.88;;;1.25;;
63114;SDS011;49208;50.874;6.466;2022-09-17T13:47:57;5.13;;;2.25;;
63114;SDS011;49208;50.874;6.466;2022-09-17T13:50:29;4.13;;;1.42;;
63114;SDS011;49208;50.874;6.466;2022-09-17T13:53:07;5.70;;;1.42;;
63114;SDS011;49208;50.874;6.466;2022-09-17T13:55:51;7.95;;;1.20;;
63114;SDS011;49208;50.874;6.466;2022-09-17T14:00:54;3.53;;;1.20;;
63114;SDS011;49208;50.874;6.466;2022-09-17T14:13:45;4.35;;;1.10;;
63114;SDS011;49208;50.874;6.466;2022-09-17T14:16:25;3.58;;;1.23;;
63114;SDS011;49208;50.874;6.466;2022-09-17T14:32:56;6.90;;;1.33;;
63114;SDS011;49208;50.874;6.466;2022-09-17T14:43:32;5.70;;;1.25;;
63114;SDS011;49208;50.874;6.466;2022-09-17T14:46:31;3.88;;;0.90;;
63114;SDS011;49208;50.874;6.466;2022-09-17T14:49:14;5.85;;;1.05;;
63114;SDS011;49208;50.874;6.466;2022-09-17T14:51:40;5.13;;;1.05;;
63114;SDS011;49208;50.874;6.466;2022-09-17T14:54:07;4.25;;;0.70;;
63114;SDS011;49208;50.874;6.466;2022-09-17T14:59:43;4.07;;;1.00;;
63114;SDS011;49208;50.874;6.466;2022-09-17T15:05:10;3.90;;;1.08;;
63114;SDS011;49208;50.874;6.466;2022-09-17T15:07:41;4.28;;;0.70;;
63114;SDS011;49208;50.874;6.466;2022-09-17T15:10:08;4.70;;;1.42;;
63114;SDS011;49208;50.874;6.466;2022-09-17T15:12:39;3.50;;;0.80;;
63114;SDS011;49208;50.874;6.466;2022-09-17T15:15:04;3.80;;;0.88;;
63114;SDS011;49208;50.874;6.466;2022-09-17T15:17:30;5.80;;;1.45;;
63114;SDS011;49208;50.874;6.466;2022-09-17T15:19:57;7.00;;;1.20;;
63114;SDS011;49208;50.874;6.466;2022-09-17T15:22:28;7.43;;;1.70;;
63114;SDS011;49208;50.874;6.466;2022-09-17T15:25:03;4.85;;;1.30;;
63114;SDS011;49208;50.874;6.466;2022-09-17T15:27:38;4.53;;;1.27;;
63114;SDS011;49208;50.874;6.466;2022-09-17T15:30:12;5.95;;;1.17;;
63114;SDS011;49208;50.874;6.466;2022-09-17T15:32:48;5.57;;;1.67;;
63114;SDS011;49208;50.874;6.466;2022-09-17T15:35:16;6.00;;;1.20;;
63114;SDS011;49208;50.874;6.466;2022-09-17T15:37:52;4.15;;;1.25;;
63114;SDS011;49208;50.874;6.466;2022-09-17T15:40:23;8.27;;;1.90;;
63114;SDS011;49208;50.874;6.466;2022-09-17T15:43:17;3.03;;;0.80;;
63114;SDS011;49208;50.874;6.466;2022-09-17T15:45:55;6.20;;;1.33;;
63114;SDS011;49208;50.874;6.466;2022-09-17T15:50:58;4.93;;;1.42;;
63114;SDS011;49208;50.874;6.466;2022-09-17T15:53:32;6.80;;;1.50;;
63114;SDS011;49208;50.874;6.466;2022-09-17T15:58:34;6.05;;;1.42;;
63114;SDS011;49208;50.874;6.466;2022-09-17T16:08:59;7.03;;;1.10;;
63114;SDS011;49208;50.874;6.466;2022-09-17T16:11:26;4.95;;;1.05;;
63114;SDS011;49208;50.874;6.466;2022-09-17T16:13:54;9.60;;;1.20;;
63114;SDS011;49208;50.874;6.466;2022-09-17T16:18:48;7.18;;;1.00;;
63114;SDS011;49208;50.874;6.466;2022-09-17T16:21:15;7.38;;;1.15;;
63114;SDS011;49208;50.874;6.466;2022-09-17T16:23:41;7.32;;;1.25;;
63114;SDS011;49208;50.874;6.466;2022-09-17T16:26:20;6.82;;;1.50;;
63114;SDS011;49208;50.874;6.466;2022-09-17T16:28:51;3.40;;;1.10;;
63114;SDS011;49208;50.874;6.466;2022-09-17T16:31:19;4.30;;;1.10;;
63114;SDS011;49208;50.874;6.466;2022-09-17T16:33:45;9.43;;;1.30;;
63114;SDS011;49208;50.874;6.466;2022-09-17T16:36:10;7.35;;;1.45;;
63114;SDS011;49208;50.874;6.466;2022-09-17T16:38:36;7.93;;;1.20;;
63114;SDS011;49208;50.874;6.466;2022-09-17T16:41:05;5.20;;;1.00;;
63114;SDS011;49208;50.874;6.466;2022-09-17T16:43:32;5.20;;;1.65;;
63114;SDS011;49208;50.874;6.466;2022-09-17T16:48:24;4.68;;;1.10;;
63114;SDS011;49208;50.874;6.466;2022-09-17T16:50:49;3.38;;;1.05;;
63114;SDS011;49208;50.874;6.466;2022-09-17T16:53:14;4.20;;;0.98;;
63114;SDS011;49208;50.874;6.466;2022-09-17T16:55:40;2.88;;;0.98;;
63114;SDS011;49208;50.874;6.466;2022-09-17T16:58:05;5.85;;;1.83;;
63114;SDS011;49208;50.874;6.466;2022-09-17T17:00:30;7.25;;;1.10;;
63114;SDS011;49208;50.874;6.466;2022-09-17T17:02:56;5.60;;;1.25;;
63114;SDS011;49208;50.874;6.466;2022-09-17T17:05:22;3.63;;;1.08;;
63114;SDS011;49208;50.874;6.466;2022-09-17T17:07:48;5.22;;;1.08;;
63114;SDS011;49208;50.874;6.466;2022-09-17T17:10:14;6.13;;;1.40;;
63114;SDS011;49208;50.874;6.466;2022-09-17T17:12:40;7.28;;;1.42;;
63114;SDS011;49208;50.874;6.466;2022-09-17T17:15:06;7.15;;;1.05;;
63114;SDS011;49208;50.874;6.466;2022-09-17T17:17:33;7.82;;;1.23;;
63114;SDS011;49208;50.874;6.466;2022-09-17T17:19:59;2.83;;;0.68;;
63114;SDS011;49208;50.874;6.466;2022-09-17T17:22:25;4.47;;;0.93;;
63114;SDS011;49208;50.874;6.466;2022-09-17T17:24:51;7.07;;;1.00;;
63114;SDS011;49208;50.874;6.466;2022-09-17T17:27:16;6.93;;;1.20;;
63114;SDS011;49208;50.874;6.466;2022-09-17T17:29:42;3.55;;;1.00;;
63114;SDS011;49208;50.874;6.466;2022-09-17T17:32:07;5.50;;;1.20;;
63114;SDS011;49208;50.874;6.466;2022-09-17T17:34:32;8.90;;;1.20;;
63114;SDS011;49208;50.874;6.466;2022-09-17T17:36:58;3.35;;;0.88;;
63114;SDS011;49208;50.874;6.466;2022-09-17T17:39:23;8.88;;;2.47;;
63114;SDS011;49208;50.874;6.466;2022-09-17T17:41:49;6.38;;;1.30;;
63114;SDS011;49208;50.874;6.466;2022-09-17T17:44:14;6.22;;;1.35;;
63114;SDS011;49208;50.874;6.466;2022-09-17T17:46:40;5.40;;;1.27;;
63114;SDS011;49208;50.874;6.466;2022-09-17T17:49:05;6.10;;;1.35;;
63114;SDS011;49208;50.874;6.466;2022-09-17T17:51:32;6.53;;;1.40;;
63114;SDS011;49208;50.874;6.466;2022-09-17T17:53:58;8.52;;;1.85;;
63114;SDS011;49208;50.874;6.466;2022-09-17T17:56:23;6.15;;;1.30;;
63114;SDS011;49208;50.874;6.466;2022-09-17T17:58:55;5.72;;;2.10;;
63114;SDS011;49208;50.874;6.466;2022-09-17T18:01:27;8.82;;;1.50;;
63114;SDS011;49208;50.874;6.466;2022-09-17T18:03:57;6.35;;;1.58;;
63114;SDS011;49208;50.874;6.466;2022-09-17T18:06:25;7.45;;;1.83;;
63114;SDS011;49208;50.874;6.466;2022-09-17T18:08:51;5.28;;;1.35;;
63114;SDS011;49208;50.874;6.466;2022-09-17T18:11:17;4.13;;;1.45;;
63114;SDS011;49208;50.874;6.466;2022-09-17T18:13:43;4.55;;;1.13;;
63114;SDS011;49208;50.874;6.466;2022-09-17T18:16:10;7.05;;;1.40;;
63114;SDS011;49208;50.874;6.466;2022-09-17T18:21:04;6.43;;;1.37;;
63114;SDS011;49208;50.874;6.466;2022-09-17T18:23:33;6.15;;;1.33;;
63114;SDS011;49208;50.874;6.466;2022-09-17T18:26:00;8.55;;;1.83;;
63114;SDS011;49208;50.874;6.466;2022-09-17T18:28:27;6.60;;;2.00;;
63114;SDS011;49208;50.874;6.466;2022-09-17T18:30:54;7.50;;;1.77;;
63114;SDS011;49208;50.874;6.466;2022-09-17T18:33:24;8.80;;;1.90;;
63114;SDS011;49208;50.874;6.466;2022-09-17T18:35:51;8.25;;;1.65;;
63114;SDS011;49208;50.874;6.466;2022-09-17T18:38:21;4.40;;;1.40;;
63114;SDS011;49208;50.874;6.466;2022-09-17T18:40:47;3.17;;;1.08;;
63114;SDS011;49208;50.874;6.466;2022-09-17T18:43:13;11.40;;;3.22;;
63114;SDS011;49208;50.874;6.466;2022-09-17T18:45:38;5.45;;;1.60;;
63114;SDS011;49208;50.874;6.466;2022-09-17T18:48:04;7.38;;;1.45;;
63114;SDS011;49208;50.874;6.466;2022-09-17T18:50:30;7.00;;;1.90;;
63114;SDS011;49208;50.874;6.466;2022-09-17T18:52:56;7.57;;;2.10;;
63114;SDS011;49208;50.874;6.466;2022-09-17T18:55:21;4.90;;;1.50;;
63114;SDS011;49208;50.874;6.466;2022-09-17T18:57:48;9.23;;;2.13;;
63114;SDS011;49208;50.874;6.466;2022-09-17T19:00:15;5.22;;;1.70;;
63114;SDS011;49208;50.874;6.466;2022-09-17T19:02:43;6.90;;;2.17;;
63114;SDS011;49208;50.874;6.466;2022-09-17T19:05:08;5.38;;;1.63;;
63114;SDS011;49208;50.874;6.466;2022-09-17T19:07:34;7.28;;;1.70;;
63114;SDS011;49208;50.874;6.466;2022-09-17T19:10:00;7.55;;;2.00;;
63114;SDS011;49208;50.874;6.466;2022-09-17T19:12:25;6.72;;;1.52;;
63114;SDS011;49208;50.874;6.466;2022-09-17T19:14:51;10.90;;;2.00;;
63114;SDS011;49208;50.874;6.466;2022-09-17T19:17:16;6.57;;;1.90;;
63114;SDS011;49208;50.874;6.466;2022-09-17T19:19:41;4.65;;;1.38;;
63114;SDS011;49208;50.874;6.466;2022-09-17T19:22:07;5.97;;;1.90;;
63114;SDS011;49208;50.874;6.466;2022-09-17T19:24:32;5.70;;;2.00;;
63114;SDS011;49208;50.874;6.466;2022-09-17T19:26:57;3.58;;;1.40;;
63114;SDS011;49208;50.874;6.466;2022-09-17T19:31:50;8.10;;;1.95;;
63114;SDS011;49208;50.874;6.466;2022-09-17T19:34:15;8.27;;;2.08;;
63114;SDS011;49208;50.874;6.466;2022-09-17T19:36:41;5.93;;;1.67;;
63114;SDS011;49208;50.874;6.466;2022-09-17T19:39:06;4.28;;;1.85;;
63114;SDS011;49208;50.874;6.466;2022-09-17T19:41:32;4.97;;;2.13;;
63114;SDS011;49208;50.874;6.466;2022-09-17T19:44:00;12.55;;;2.90;;
63114;SDS011;49208;50.874;6.466;2022-09-17T19:46:26;7.55;;;2.22;;
63114;SDS011;49208;50.874;6.466;2022-09-17T19:48:56;8.38;;;2.10;;
63114;SDS011;49208;50.874;6.466;2022-09-17T19:51:23;7.30;;;2.38;;
63114;SDS011;49208;50.874;6.466;2022-09-17T19:53:51;5.88;;;2.05;;
63114;SDS011;49208;50.874;6.466;2022-09-17T19:56:18;6.57;;;1.85;;
63114;SDS011;49208;50.874;6.466;2022-09-17T19:58:45;6.50;;;1.67;;
63114;SDS011;49208;50.874;6.466;2022-09-17T20:01:11;9.48;;;1.92;;
63114;SDS011;49208;50.874;6.466;2022-09-17T20:03:41;4.63;;;1.67;;
63114;SDS011;49208;50.874;6.466;2022-09-17T20:06:09;5.65;;;1.70;;
63114;SDS011;49208;50.874;6.466;2022-09-17T20:08:37;11.07;;;1.80;;
63114;SDS011;49208;50.874;6.466;2022-09-17T20:11:08;7.30;;;1.65;;
63114;SDS011;49208;50.874;6.466;2022-09-17T20:13:36;4.95;;;1.58;;
63114;SDS011;49208;50.874;6.466;2022-09-17T20:16:05;5.72;;;1.77;;
63114;SDS011;49208;50.874;6.466;2022-09-17T20:18:33;7.40;;;1.60;;
63114;SDS011;49208;50.874;6.466;2022-09-17T20:20:59;6.57;;;1.85;;
63114;SDS011;49208;50.874;6.466;2022-09-17T20:23:30;5.97;;;2.67;;
63114;SDS011;49208;50.874;6.466;2022-09-17T20:25:56;4.82;;;1.33;;
63114;SDS011;49208;50.874;6.466;2022-09-17T20:28:21;3.65;;;1.17;;
63114;SDS011;49208;50.874;6.466;2022-09-17T20:30:47;4.82;;;1.50;;
63114;SDS011;49208;50.874;6.466;2022-09-17T20:33:12;4.55;;;1.30;;
63114;SDS011;49208;50.874;6.466;2022-09-17T20:35:38;6.45;;;1.85;;
63114;SDS011;49208;50.874;6.466;2022-09-17T20:38:03;6.63;;;1.67;;
63114;SDS011;49208;50.874;6.466;2022-09-17T20:40:28;4.72;;;1.23;;
63114;SDS011;49208;50.874;6.466;2022-09-17T20:42:54;7.68;;;1.90;;
63114;SDS011;49208;50.874;6.466;2022-09-17T20:45:20;6.03;;;1.30;;
63114;SDS011;49208;50.874;6.466;2022-09-17T20:47:48;7.88;;;2.20;;
63114;SDS011;49208;50.874;6.466;2022-09-17T20:50:15;7.70;;;2.78;;
63114;SDS011;49208;50.874;6.466;2022-09-17T20:52:40;7.15;;;2.40;;
63114;SDS011;49208;50.874;6.466;2022-09-17T20:55:05;8.95;;;1.83;;
63114;SDS011;49208;50.874;6.466;2022-09-17T20:57:31;4.95;;;1.75;;
63114;SDS011;49208;50.874;6.466;2022-09-17T20:59:56;6.30;;;2.40;;
63114;SDS011;49208;50.874;6.466;2022-09-17T21:02:25;5.90;;;1.95;;
63114;SDS011;49208;50.874;6.466;2022-09-17T21:04:51;5.55;;;1.20;;
63114;SDS011;49208;50.874;6.466;2022-09-17T21:07:20;3.45;;;1.30;;
63114;SDS011;49208;50.874;6.466;2022-09-17T21:09:45;6.00;;;2.42;;
63114;SDS011;49208;50.874;6.466;2022-09-17T21:12:10;6.45;;;1.50;;
63114;SDS011;49208;50.874;6.466;2022-09-17T21:14:36;4.22;;;1.70;;
63114;SDS011;49208;50.874;6.466;2022-09-17T21:17:02;4.65;;;1.50;;
63114;SDS011;49208;50.874;6.466;2022-09-17T21:19:29;6.03;;;1.33;;
63114;SDS011;49208;50.874;6.466;2022-09-17T21:21:55;5.75;;;1.77;;
63114;SDS011;49208;50.874;6.466;2022-09-17T21:24:21;5.97;;;1.90;;
63114;SDS011;49208;50.874;6.466;2022-09-17T21:26:47;5.82;;;2.00;;
63114;SDS011;49208;50.874;6.466;2022-09-17T21:29:13;4.60;;;1.80;;
63114;SDS011;49208;50.874;6.466;2022-09-17T21:31:39;5.40;;;1.50;;
63114;SDS011;49208;50.874;6.466;2022-09-17T21:34:05;6.63;;;1.88;;
63114;SDS011;49208;50.874;6.466;2022-09-17T21:36:34;6.13;;;2.35;;
63114;SDS011;49208;50.874;6.466;2022-09-17T21:39:03;4.20;;;1.30;;
63114;SDS011;49208;50.874;6.466;2022-09-17T21:41:30;5.18;;;1.90;;
63114;SDS011;49208;50.874;6.466;2022-09-17T21:43:56;5.25;;;2.03;;
63114;SDS011;49208;50.874;6.466;2022-09-17T21:46:26;4.82;;;1.83;;
63114;SDS011;49208;50.874;6.466;2022-09-17T21:48:53;7.30;;;2.00;;
63114;SDS011;49208;50.874;6.466;2022-09-17T21:51:22;7.43;;;2.38;;
63114;SDS011;49208;50.874;6.466;2022-09-17T21:53:49;4.63;;;1.90;;
63114;SDS011;49208;50.874;6.466;2022-09-17T21:56:20;6.75;;;1.92;;
63114;SDS011;49208;50.874;6.466;2022-09-17T21:58:49;7.30;;;2.10;;
63114;SDS011;49208;50.874;6.466;2022-09-17T22:01:16;10.32;;;2.40;;
63114;SDS011;49208;50.874;6.466;2022-09-17T22:03:44;5.10;;;2.20;;
63114;SDS011;49208;50.874;6.466;2022-09-17T22:06:11;4.20;;;2.22;;
63114;SDS011;49208;50.874;6.466;2022-09-17T22:08:42;7.70;;;2.28;;
63114;SDS011;49208;50.874;6.466;2022-09-17T22:11:09;4.78;;;1.90;;
63114;SDS011;49208;50.874;6.466;2022-09-17T22:13:37;3.95;;;1.83;;
63114;SDS011;49208;50.874;6.466;2022-09-17T22:16:04;6.80;;;2.03;;
63114;SDS011;49208;50.874;6.466;2022-09-17T22:18:31;6.82;;;1.75;;
63114;SDS011;49208;50.874;6.466;2022-09-17T22:20:58;6.13;;;2.58;;
63114;SDS011;49208;50.874;6.466;2022-09-17T22:23:25;4.47;;;1.90;;
63114;SDS011;49208;50.874;6.466;2022-09-17T22:26:01;7.97;;;2.37;;
63114;SDS011;49208;50.874;6.466;2022-09-17T22:28:28;7.82;;;1.98;;
